sensor_id;sensor_type;location;lat;lon;timestamp;P1;durP1;ratioP1;P2;durP2;ratioP2
78581;SDS011;67878;46.242;5.974;2023-07-20T00:00:22;3.03;;;1.98;;
78581;SDS011;67878;46.242;5.974;2023-07-20T00:02:49;3.17;;;1.88;;
78581;SDS011;67878;46.242;5.974;2023-07-20T00:05:15;2.53;;;1.90;;
78581;SDS011;67878;46.242;5.974;2023-07-20T00:07:43;2.97;;;1.95;;
78581;SDS011;67878;46.242;5.974;2023-07-20T00:10:09;2.78;;;1.83;;
78581;SDS011;67878;46.242;5.974;2023-07-20T00:12:35;3.92;;;1.88;;
78581;SDS011;67878;46.242;5.974;2023-07-20T00:15:00;3.63;;;2.00;;
78581;SDS011;67878;46.242;5.974;2023-07-20T00:17:26;2.63;;;1.88;;
78581;SDS011;67878;46.242;5.974;2023-07-20T00:19:51;2.53;;;1.60;;
78581;SDS011;67878;46.242;5.974;2023-07-20T00:22:17;2.50;;;1.67;;
78581;SDS011;67878;46.242;5.974;2023-07-20T00:24:42;3.10;;;1.80;;
78581;SDS011;67878;46.242;5.974;2023-07-20T00:27:08;3.17;;;2.20;;
78581;SDS011;67878;46.242;5.974;2023-07-20T00:29:33;2.80;;;1.63;;
78581;SDS011;67878;46.242;5.974;2023-07-20T00:32:00;2.72;;;1.90;;
78581;SDS011;67878;46.242;5.974;2023-07-20T00:34:25;3.20;;;1.67;;
78581;SDS011;67878;46.242;5.974;2023-07-20T00:36:51;2.50;;;1.60;;
78581;SDS011;67878;46.242;5.974;2023-07-20T00:39:16;2.67;;;1.63;;
78581;SDS011;67878;46.242;5.974;2023-07-20T00:41:42;2.92;;;1.83;;
78581;SDS011;67878;46.242;5.974;2023-07-20T00:44:07;2.90;;;1.88;;
78581;SDS011;67878;46.242;5.974;2023-07-20T00:46:33;2.20;;;1.70;;
78581;SDS011;67878;46.242;5.974;2023-07-20T00:48:58;2.80;;;1.88;;
78581;SDS011;67878;46.242;5.974;2023-07-20T00:51:24;2.30;;;1.63;;
78581;SDS011;67878;46.242;5.974;2023-07-20T00:53:50;3.33;;;1.73;;
78581;SDS011;67878;46.242;5.974;2023-07-20T00:56:16;2.00;;;1.60;;
78581;SDS011;67878;46.242;5.974;2023-07-20T00:58:41;2.75;;;1.70;;
78581;SDS011;67878;46.242;5.974;2023-07-20T01:01:07;2.58;;;1.83;;
78581;SDS011;67878;46.242;5.974;2023-07-20T01:03:32;2.33;;;1.60;;
78581;SDS011;67878;46.242;5.974;2023-07-20T01:14:01;2.60;;;1.70;;
78581;SDS011;67878;46.242;5.974;2023-07-20T01:16:28;3.17;;;1.73;;
78581;SDS011;67878;46.242;5.974;2023-07-20T01:18:53;2.35;;;1.88;;
78581;SDS011;67878;46.242;5.974;2023-07-20T01:21:21;2.65;;;1.77;;
78581;SDS011;67878;46.242;5.974;2023-07-20T01:27:00;2.97;;;1.50;;
78581;SDS011;67878;46.242;5.974;2023-07-20T01:32:18;2.72;;;1.73;;
78581;SDS011;67878;46.242;5.974;2023-07-20T01:34:45;2.63;;;1.40;;
78581;SDS011;67878;46.242;5.974;2023-07-20T01:37:12;3.53;;;1.80;;
78581;SDS011;67878;46.242;5.974;2023-07-20T01:39:39;1.98;;;1.40;;
78581;SDS011;67878;46.242;5.974;2023-07-20T01:42:05;2.10;;;1.48;;
78581;SDS011;67878;46.242;5.974;2023-07-20T01:44:31;1.90;;;1.55;;
78581;SDS011;67878;46.242;5.974;2023-07-20T01:46:57;3.78;;;1.30;;
78581;SDS011;67878;46.242;5.974;2023-07-20T01:49:22;2.45;;;1.65;;
78581;SDS011;67878;46.242;5.974;2023-07-20T01:51:47;2.92;;;1.60;;
78581;SDS011;67878;46.242;5.974;2023-07-20T01:54:13;2.60;;;1.55;;
78581;SDS011;67878;46.242;5.974;2023-07-20T01:56:38;2.00;;;1.50;;
78581;SDS011;67878;46.242;5.974;2023-07-20T01:59:04;2.30;;;1.60;;
78581;SDS011;67878;46.242;5.974;2023-07-20T02:01:29;2.28;;;1.48;;
78581;SDS011;67878;46.242;5.974;2023-07-20T02:03:54;2.03;;;1.52;;
78581;SDS011;67878;46.242;5.974;2023-07-20T02:06:20;1.90;;;1.63;;
78581;SDS011;67878;46.242;5.974;2023-07-20T02:08:45;1.77;;;1.40;;
78581;SDS011;67878;46.242;5.974;2023-07-20T02:11:10;1.60;;;1.30;;
78581;SDS011;67878;46.242;5.974;2023-07-20T02:13:36;2.03;;;1.30;;
78581;SDS011;67878;46.242;5.974;2023-07-20T02:16:01;1.77;;;1.30;;
78581;SDS011;67878;46.242;5.974;2023-07-20T02:18:27;2.35;;;1.42;;
78581;SDS011;67878;46.242;5.974;2023-07-20T02:20:53;3.70;;;1.92;;
78581;SDS011;67878;46.242;5.974;2023-07-20T02:23:19;2.80;;;1.63;;
78581;SDS011;67878;46.242;5.974;2023-07-20T02:25:44;1.73;;;1.15;;
78581;SDS011;67878;46.242;5.974;2023-07-20T02:28:10;2.25;;;1.30;;
78581;SDS011;67878;46.242;5.974;2023-07-20T02:30:38;2.08;;;1.50;;
78581;SDS011;67878;46.242;5.974;2023-07-20T02:33:04;1.80;;;1.30;;
78581;SDS011;67878;46.242;5.974;2023-07-20T02:35:31;2.20;;;1.33;;
78581;SDS011;67878;46.242;5.974;2023-07-20T02:37:57;2.33;;;1.33;;
78581;SDS011;67878;46.242;5.974;2023-07-20T02:40:22;2.58;;;1.30;;
78581;SDS011;67878;46.242;5.974;2023-07-20T02:42:48;1.88;;;1.23;;
78581;SDS011;67878;46.242;5.974;2023-07-20T02:45:13;2.58;;;1.40;;
78581;SDS011;67878;46.242;5.974;2023-07-20T02:47:40;2.05;;;1.45;;
78581;SDS011;67878;46.242;5.974;2023-07-20T02:50:07;2.25;;;1.50;;
78581;SDS011;67878;46.242;5.974;2023-07-20T02:52:33;1.92;;;1.25;;
78581;SDS011;67878;46.242;5.974;2023-07-20T02:54:58;1.80;;;1.60;;
78581;SDS011;67878;46.242;5.974;2023-07-20T02:57:23;2.20;;;1.40;;
78581;SDS011;67878;46.242;5.974;2023-07-20T02:59:49;1.88;;;1.15;;
78581;SDS011;67878;46.242;5.974;2023-07-20T03:02:14;2.67;;;1.35;;
78581;SDS011;67878;46.242;5.974;2023-07-20T03:04:40;2.25;;;1.52;;
78581;SDS011;67878;46.242;5.974;2023-07-20T03:07:05;3.15;;;1.77;;
78581;SDS011;67878;46.242;5.974;2023-07-20T03:09:32;2.47;;;1.42;;
78581;SDS011;67878;46.242;5.974;2023-07-20T03:11:57;1.70;;;1.17;;
78581;SDS011;67878;46.242;5.974;2023-07-20T03:14:22;2.67;;;1.50;;
78581;SDS011;67878;46.242;5.974;2023-07-20T03:16:48;1.63;;;1.10;;
78581;SDS011;67878;46.242;5.974;2023-07-20T03:19:14;1.30;;;1.10;;
78581;SDS011;67878;46.242;5.974;2023-07-20T03:21:39;4.47;;;1.67;;
78581;SDS011;67878;46.242;5.974;2023-07-20T03:24:06;3.20;;;1.17;;
78581;SDS011;67878;46.242;5.974;2023-07-20T03:26:33;2.40;;;1.25;;
78581;SDS011;67878;46.242;5.974;2023-07-20T03:28:59;1.80;;;1.40;;
78581;SDS011;67878;46.242;5.974;2023-07-20T03:31:24;3.92;;;1.40;;
78581;SDS011;67878;46.242;5.974;2023-07-20T03:33:50;2.38;;;1.27;;
78581;SDS011;67878;46.242;5.974;2023-07-20T03:36:15;1.98;;;1.10;;
78581;SDS011;67878;46.242;5.974;2023-07-20T03:38:41;1.88;;;1.50;;
78581;SDS011;67878;46.242;5.974;2023-07-20T03:41:06;2.03;;;1.42;;
78581;SDS011;67878;46.242;5.974;2023-07-20T03:43:31;2.13;;;1.40;;
78581;SDS011;67878;46.242;5.974;2023-07-20T03:45:57;2.50;;;1.20;;
78581;SDS011;67878;46.242;5.974;2023-07-20T03:48:22;1.67;;;1.40;;
78581;SDS011;67878;46.242;5.974;2023-07-20T03:50:49;1.92;;;1.35;;
78581;SDS011;67878;46.242;5.974;2023-07-20T03:53:16;1.40;;;0.95;;
78581;SDS011;67878;46.242;5.974;2023-07-20T03:55:48;1.70;;;1.10;;
78581;SDS011;67878;46.242;5.974;2023-07-20T03:58:14;2.20;;;1.30;;
78581;SDS011;67878;46.242;5.974;2023-07-20T04:00:39;2.33;;;1.38;;
78581;SDS011;67878;46.242;5.974;2023-07-20T04:03:05;2.67;;;1.30;;
78581;SDS011;67878;46.242;5.974;2023-07-20T04:05:31;4.75;;;1.25;;
78581;SDS011;67878;46.242;5.974;2023-07-20T04:07:56;2.42;;;1.08;;
78581;SDS011;67878;46.242;5.974;2023-07-20T04:10:22;1.67;;;1.20;;
78581;SDS011;67878;46.242;5.974;2023-07-20T04:12:47;1.20;;;1.02;;
78581;SDS011;67878;46.242;5.974;2023-07-20T04:15:13;3.03;;;1.42;;
78581;SDS011;67878;46.242;5.974;2023-07-20T04:17:39;2.05;;;1.30;;
78581;SDS011;67878;46.242;5.974;2023-07-20T04:20:06;1.95;;;1.20;;
78581;SDS011;67878;46.242;5.974;2023-07-20T04:22:32;2.08;;;1.10;;
78581;SDS011;67878;46.242;5.974;2023-07-20T04:24:59;2.42;;;1.30;;
78581;SDS011;67878;46.242;5.974;2023-07-20T04:27:29;2.83;;;1.13;;
78581;SDS011;67878;46.242;5.974;2023-07-20T04:29:55;1.48;;;1.15;;
78581;SDS011;67878;46.242;5.974;2023-07-20T04:32:21;3.83;;;1.30;;
78581;SDS011;67878;46.242;5.974;2023-07-20T04:34:46;2.08;;;1.35;;
78581;SDS011;67878;46.242;5.974;2023-07-20T04:37:12;2.17;;;1.20;;
78581;SDS011;67878;46.242;5.974;2023-07-20T04:39:37;2.30;;;1.45;;
78581;SDS011;67878;46.242;5.974;2023-07-20T04:42:02;2.17;;;1.27;;
78581;SDS011;67878;46.242;5.974;2023-07-20T04:44:28;2.28;;;1.35;;
78581;SDS011;67878;46.242;5.974;2023-07-20T04:46:53;1.92;;;1.30;;
78581;SDS011;67878;46.242;5.974;2023-07-20T04:49:19;2.28;;;1.40;;
78581;SDS011;67878;46.242;5.974;2023-07-20T04:51:45;2.15;;;1.13;;
78581;SDS011;67878;46.242;5.974;2023-07-20T04:54:10;3.90;;;1.25;;
78581;SDS011;67878;46.242;5.974;2023-07-20T04:56:36;2.35;;;1.13;;
78581;SDS011;67878;46.242;5.974;2023-07-20T04:59:02;2.20;;;1.30;;
78581;SDS011;67878;46.242;5.974;2023-07-20T05:01:30;1.90;;;1.20;;
78581;SDS011;67878;46.242;5.974;2023-07-20T05:03:56;2.00;;;1.17;;
78581;SDS011;67878;46.242;5.974;2023-07-20T05:06:21;2.97;;;1.30;;
78581;SDS011;67878;46.242;5.974;2023-07-20T05:08:47;1.83;;;1.20;;
78581;SDS011;67878;46.242;5.974;2023-07-20T05:11:12;1.75;;;1.30;;
78581;SDS011;67878;46.242;5.974;2023-07-20T05:13:37;1.83;;;1.30;;
78581;SDS011;67878;46.242;5.974;2023-07-20T05:16:03;1.55;;;1.40;;
78581;SDS011;67878;46.242;5.974;2023-07-20T05:18:28;3.88;;;1.27;;
78581;SDS011;67878;46.242;5.974;2023-07-20T05:20:54;2.38;;;1.30;;
78581;SDS011;67878;46.242;5.974;2023-07-20T05:23:20;1.95;;;1.20;;
78581;SDS011;67878;46.242;5.974;2023-07-20T05:25:46;2.15;;;1.33;;
78581;SDS011;67878;46.242;5.974;2023-07-20T05:28:12;1.67;;;1.17;;
78581;SDS011;67878;46.242;5.974;2023-07-20T05:30:37;1.42;;;1.20;;
78581;SDS011;67878;46.242;5.974;2023-07-20T05:33:03;1.70;;;1.20;;
78581;SDS011;67878;46.242;5.974;2023-07-20T05:35:28;1.65;;;1.17;;
78581;SDS011;67878;46.242;5.974;2023-07-20T05:37:53;1.73;;;1.27;;
78581;SDS011;67878;46.242;5.974;2023-07-20T05:40:19;2.13;;;1.23;;
78581;SDS011;67878;46.242;5.974;2023-07-20T05:42:46;1.80;;;1.35;;
78581;SDS011;67878;46.242;5.974;2023-07-20T05:45:13;1.83;;;1.20;;
78581;SDS011;67878;46.242;5.974;2023-07-20T05:47:38;1.40;;;1.20;;
78581;SDS011;67878;46.242;5.974;2023-07-20T05:50:04;2.40;;;1.10;;
78581;SDS011;67878;46.242;5.974;2023-07-20T05:52:30;1.67;;;1.20;;
78581;SDS011;67878;46.242;5.974;2023-07-20T05:54:55;1.77;;;1.20;;
78581;SDS011;67878;46.242;5.974;2023-07-20T05:57:21;2.65;;;1.23;;
78581;SDS011;67878;46.242;5.974;2023-07-20T05:59:46;1.65;;;1.23;;
78581;SDS011;67878;46.242;5.974;2023-07-20T06:02:11;1.45;;;1.00;;
78581;SDS011;67878;46.242;5.974;2023-07-20T06:04:38;2.35;;;1.27;;
78581;SDS011;67878;46.242;5.974;2023-07-20T06:07:04;2.15;;;1.38;;
78581;SDS011;67878;46.242;5.974;2023-07-20T06:09:30;2.45;;;1.60;;
78581;SDS011;67878;46.242;5.974;2023-07-20T06:11:55;2.28;;;1.25;;
78581;SDS011;67878;46.242;5.974;2023-07-20T06:14:21;1.58;;;1.23;;
78581;SDS011;67878;46.242;5.974;2023-07-20T06:16:47;2.78;;;1.30;;
78581;SDS011;67878;46.242;5.974;2023-07-20T06:19:14;1.40;;;1.30;;
78581;SDS011;67878;46.242;5.974;2023-07-20T06:21:42;2.50;;;1.30;;
78581;SDS011;67878;46.242;5.974;2023-07-20T06:24:10;1.30;;;1.10;;
78581;SDS011;67878;46.242;5.974;2023-07-20T06:26:35;2.88;;;1.40;;
78581;SDS011;67878;46.242;5.974;2023-07-20T06:29:07;1.70;;;1.50;;
78581;SDS011;67878;46.242;5.974;2023-07-20T06:31:34;2.45;;;1.63;;
78581;SDS011;67878;46.242;5.974;2023-07-20T06:34:00;2.28;;;1.40;;
78581;SDS011;67878;46.242;5.974;2023-07-20T06:36:26;1.33;;;1.00;;
78581;SDS011;67878;46.242;5.974;2023-07-20T06:38:51;2.65;;;1.40;;
78581;SDS011;67878;46.242;5.974;2023-07-20T06:41:17;2.22;;;1.48;;
78581;SDS011;67878;46.242;5.974;2023-07-20T06:43:43;1.70;;;1.13;;
78581;SDS011;67878;46.242;5.974;2023-07-20T06:46:08;2.28;;;1.58;;
78581;SDS011;67878;46.242;5.974;2023-07-20T06:48:34;1.90;;;1.30;;
78581;SDS011;67878;46.242;5.974;2023-07-20T06:50:59;3.70;;;1.23;;
78581;SDS011;67878;46.242;5.974;2023-07-20T06:53:24;3.85;;;1.40;;
78581;SDS011;67878;46.242;5.974;2023-07-20T06:55:50;1.70;;;1.20;;
78581;SDS011;67878;46.242;5.974;2023-07-20T06:58:15;1.95;;;1.40;;
78581;SDS011;67878;46.242;5.974;2023-07-20T07:00:41;1.88;;;1.27;;
78581;SDS011;67878;46.242;5.974;2023-07-20T07:03:07;2.40;;;1.48;;
78581;SDS011;67878;46.242;5.974;2023-07-20T07:05:35;1.58;;;1.17;;
78581;SDS011;67878;46.242;5.974;2023-07-20T07:08:01;1.60;;;1.20;;
78581;SDS011;67878;46.242;5.974;2023-07-20T07:10:27;2.45;;;1.38;;
78581;SDS011;67878;46.242;5.974;2023-07-20T07:12:53;3.00;;;1.30;;
78581;SDS011;67878;46.242;5.974;2023-07-20T07:15:18;2.97;;;1.40;;
78581;SDS011;67878;46.242;5.974;2023-07-20T07:17:43;2.47;;;1.45;;
78581;SDS011;67878;46.242;5.974;2023-07-20T07:20:12;3.15;;;1.60;;
78581;SDS011;67878;46.242;5.974;2023-07-20T07:22:39;2.63;;;1.40;;
78581;SDS011;67878;46.242;5.974;2023-07-20T07:25:05;2.22;;;1.50;;
78581;SDS011;67878;46.242;5.974;2023-07-20T07:27:31;2.40;;;1.30;;
78581;SDS011;67878;46.242;5.974;2023-07-20T07:29:56;2.03;;;1.40;;
78581;SDS011;67878;46.242;5.974;2023-07-20T07:32:22;4.65;;;1.67;;
78581;SDS011;67878;46.242;5.974;2023-07-20T07:34:47;4.50;;;1.88;;
78581;SDS011;67878;46.242;5.974;2023-07-20T07:37:13;10.00;;;2.05;;
78581;SDS011;67878;46.242;5.974;2023-07-20T07:39:39;4.55;;;1.75;;
78581;SDS011;67878;46.242;5.974;2023-07-20T07:42:05;5.05;;;1.98;;
78581;SDS011;67878;46.242;5.974;2023-07-20T07:44:31;3.35;;;1.63;;
78581;SDS011;67878;46.242;5.974;2023-07-20T07:46:56;3.20;;;2.08;;
78581;SDS011;67878;46.242;5.974;2023-07-20T07:49:22;4.13;;;1.83;;
78581;SDS011;67878;46.242;5.974;2023-07-20T07:51:47;2.17;;;1.52;;
78581;SDS011;67878;46.242;5.974;2023-07-20T07:54:14;10.93;;;2.13;;
78581;SDS011;67878;46.242;5.974;2023-07-20T07:56:40;4.72;;;1.63;;
78581;SDS011;67878;46.242;5.974;2023-07-20T07:59:06;4.32;;;1.73;;
78581;SDS011;67878;46.242;5.974;2023-07-20T08:01:31;3.45;;;1.60;;
78581;SDS011;67878;46.242;5.974;2023-07-20T08:03:57;3.28;;;1.75;;
78581;SDS011;67878;46.242;5.974;2023-07-20T08:06:22;3.97;;;1.70;;
78581;SDS011;67878;46.242;5.974;2023-07-20T08:08:49;2.72;;;1.52;;
78581;SDS011;67878;46.242;5.974;2023-07-20T08:11:14;2.10;;;1.48;;
78581;SDS011;67878;46.242;5.974;2023-07-20T08:13:39;2.55;;;1.60;;
78581;SDS011;67878;46.242;5.974;2023-07-20T08:16:05;2.95;;;1.63;;
78581;SDS011;67878;46.242;5.974;2023-07-20T08:18:30;2.00;;;1.52;;
78581;SDS011;67878;46.242;5.974;2023-07-20T08:20:56;3.00;;;1.83;;
78581;SDS011;67878;46.242;5.974;2023-07-20T08:23:22;3.88;;;1.73;;
78581;SDS011;67878;46.242;5.974;2023-07-20T08:25:47;2.45;;;1.30;;
78581;SDS011;67878;46.242;5.974;2023-07-20T08:28:14;2.53;;;1.40;;
78581;SDS011;67878;46.242;5.974;2023-07-20T08:30:44;2.47;;;1.70;;
78581;SDS011;67878;46.242;5.974;2023-07-20T08:33:12;3.65;;;1.48;;
78581;SDS011;67878;46.242;5.974;2023-07-20T08:35:38;2.00;;;1.30;;
78581;SDS011;67878;46.242;5.974;2023-07-20T08:38:03;3.33;;;1.98;;
78581;SDS011;67878;46.242;5.974;2023-07-20T08:40:30;3.55;;;2.17;;
78581;SDS011;67878;46.242;5.974;2023-07-20T08:42:57;2.63;;;1.58;;
78581;SDS011;67878;46.242;5.974;2023-07-20T08:45:24;2.88;;;1.40;;
78581;SDS011;67878;46.242;5.974;2023-07-20T08:47:51;2.22;;;1.30;;
78581;SDS011;67878;46.242;5.974;2023-07-20T08:50:17;2.15;;;1.50;;
78581;SDS011;67878;46.242;5.974;2023-07-20T08:52:43;2.15;;;1.38;;
78581;SDS011;67878;46.242;5.974;2023-07-20T08:55:09;2.35;;;1.40;;
78581;SDS011;67878;46.242;5.974;2023-07-20T08:57:34;1.90;;;1.40;;
78581;SDS011;67878;46.242;5.974;2023-07-20T09:00:04;2.25;;;1.40;;
78581;SDS011;67878;46.242;5.974;2023-07-20T09:02:30;2.40;;;1.50;;
78581;SDS011;67878;46.242;5.974;2023-07-20T09:04:59;1.65;;;1.33;;
78581;SDS011;67878;46.242;5.974;2023-07-20T09:07:24;2.67;;;1.40;;
78581;SDS011;67878;46.242;5.974;2023-07-20T09:09:50;2.85;;;1.42;;
78581;SDS011;67878;46.242;5.974;2023-07-20T09:12:15;2.25;;;1.35;;
78581;SDS011;67878;46.242;5.974;2023-07-20T09:14:44;2.22;;;1.50;;
78581;SDS011;67878;46.242;5.974;2023-07-20T09:17:13;2.17;;;1.63;;
78581;SDS011;67878;46.242;5.974;2023-07-20T09:19:48;3.00;;;1.42;;
78581;SDS011;67878;46.242;5.974;2023-07-20T09:22:14;2.42;;;1.40;;
78581;SDS011;67878;46.242;5.974;2023-07-20T09:24:39;3.22;;;1.60;;
78581;SDS011;67878;46.242;5.974;2023-07-20T09:27:06;2.13;;;1.50;;
78581;SDS011;67878;46.242;5.974;2023-07-20T09:29:32;1.88;;;1.50;;
78581;SDS011;67878;46.242;5.974;2023-07-20T09:34:26;2.05;;;1.42;;
78581;SDS011;67878;46.242;5.974;2023-07-20T09:36:53;3.75;;;1.60;;
78581;SDS011;67878;46.242;5.974;2023-07-20T09:39:18;2.40;;;1.45;;
78581;SDS011;67878;46.242;5.974;2023-07-20T09:41:45;1.98;;;1.40;;
78581;SDS011;67878;46.242;5.974;2023-07-20T09:44:10;2.58;;;1.60;;
78581;SDS011;67878;46.242;5.974;2023-07-20T09:46:48;2.60;;;1.67;;
78581;SDS011;67878;46.242;5.974;2023-07-20T09:49:14;2.67;;;1.63;;
78581;SDS011;67878;46.242;5.974;2023-07-20T09:51:41;2.42;;;1.42;;
78581;SDS011;67878;46.242;5.974;2023-07-20T09:54:09;2.85;;;1.50;;
78581;SDS011;67878;46.242;5.974;2023-07-20T09:56:35;2.47;;;1.20;;
78581;SDS011;67878;46.242;5.974;2023-07-20T09:59:01;2.10;;;1.45;;
78581;SDS011;67878;46.242;5.974;2023-07-20T10:01:26;2.70;;;1.52;;
78581;SDS011;67878;46.242;5.974;2023-07-20T10:03:54;1.98;;;1.48;;
78581;SDS011;67878;46.242;5.974;2023-07-20T10:06:20;1.95;;;1.20;;
78581;SDS011;67878;46.242;5.974;2023-07-20T10:08:49;3.28;;;1.50;;
78581;SDS011;67878;46.242;5.974;2023-07-20T10:11:18;3.15;;;1.30;;
78581;SDS011;67878;46.242;5.974;2023-07-20T10:13:44;2.05;;;1.42;;
78581;SDS011;67878;46.242;5.974;2023-07-20T10:16:10;2.78;;;1.52;;
78581;SDS011;67878;46.242;5.974;2023-07-20T10:21:42;1.75;;;1.38;;
78581;SDS011;67878;46.242;5.974;2023-07-20T10:24:14;1.73;;;1.20;;
78581;SDS011;67878;46.242;5.974;2023-07-20T10:26:41;1.50;;;1.05;;
78581;SDS011;67878;46.242;5.974;2023-07-20T10:29:07;2.25;;;1.35;;
78581;SDS011;67878;46.242;5.974;2023-07-20T10:31:33;1.90;;;1.00;;
78581;SDS011;67878;46.242;5.974;2023-07-20T10:33:59;1.92;;;1.20;;
78581;SDS011;67878;46.242;5.974;2023-07-20T10:36:25;1.90;;;1.20;;
78581;SDS011;67878;46.242;5.974;2023-07-20T10:38:55;1.83;;;1.23;;
78581;SDS011;67878;46.242;5.974;2023-07-20T10:41:28;2.20;;;1.25;;
78581;SDS011;67878;46.242;5.974;2023-07-20T10:44:07;2.28;;;1.50;;
78581;SDS011;67878;46.242;5.974;2023-07-20T10:49:13;2.13;;;1.40;;
78581;SDS011;67878;46.242;5.974;2023-07-20T10:51:45;2.88;;;1.30;;
78581;SDS011;67878;46.242;5.974;2023-07-20T11:01:49;2.22;;;1.20;;
78581;SDS011;67878;46.242;5.974;2023-07-20T11:04:16;2.33;;;1.50;;
78581;SDS011;67878;46.242;5.974;2023-07-20T11:06:44;1.45;;;1.15;;
78581;SDS011;67878;46.242;5.974;2023-07-20T11:09:11;1.83;;;1.10;;
78581;SDS011;67878;46.242;5.974;2023-07-20T11:11:39;2.38;;;1.48;;
78581;SDS011;67878;46.242;5.974;2023-07-20T11:14:09;2.50;;;1.27;;
78581;SDS011;67878;46.242;5.974;2023-07-20T11:19:06;4.97;;;1.40;;
78581;SDS011;67878;46.242;5.974;2023-07-20T11:21:42;2.38;;;1.20;;
78581;SDS011;67878;46.242;5.974;2023-07-20T11:24:11;3.08;;;1.98;;
78581;SDS011;67878;46.242;5.974;2023-07-20T11:26:43;6.45;;;3.55;;
78581;SDS011;67878;46.242;5.974;2023-07-20T11:29:16;3.70;;;2.40;;
78581;SDS011;67878;46.242;5.974;2023-07-20T11:31:47;3.15;;;2.10;;
78581;SDS011;67878;46.242;5.974;2023-07-20T11:36:45;5.00;;;2.50;;
78581;SDS011;67878;46.242;5.974;2023-07-20T11:39:13;4.38;;;2.92;;
78581;SDS011;67878;46.242;5.974;2023-07-20T11:41:46;4.88;;;2.70;;
78581;SDS011;67878;46.242;5.974;2023-07-20T11:44:18;5.93;;;3.15;;
78581;SDS011;67878;46.242;5.974;2023-07-20T11:46:44;3.97;;;2.47;;
78581;SDS011;67878;46.242;5.974;2023-07-20T11:49:11;2.85;;;2.25;;
78581;SDS011;67878;46.242;5.974;2023-07-20T11:51:41;5.20;;;2.30;;
78581;SDS011;67878;46.242;5.974;2023-07-20T11:54:10;3.08;;;2.22;;
78581;SDS011;67878;46.242;5.974;2023-07-20T11:56:41;3.50;;;2.00;;
78581;SDS011;67878;46.242;5.974;2023-07-20T11:59:09;4.07;;;2.28;;
78581;SDS011;67878;46.242;5.974;2023-07-20T12:01:34;4.82;;;2.00;;
78581;SDS011;67878;46.242;5.974;2023-07-20T12:04:03;4.25;;;2.30;;
78581;SDS011;67878;46.242;5.974;2023-07-20T12:06:29;3.92;;;2.30;;
78581;SDS011;67878;46.242;5.974;2023-07-20T12:08:56;4.18;;;2.10;;
78581;SDS011;67878;46.242;5.974;2023-07-20T12:11:31;3.30;;;2.00;;
78581;SDS011;67878;46.242;5.974;2023-07-20T12:14:01;5.00;;;2.30;;
78581;SDS011;67878;46.242;5.974;2023-07-20T12:16:34;3.40;;;2.17;;
78581;SDS011;67878;46.242;5.974;2023-07-20T12:19:07;3.05;;;1.95;;
78581;SDS011;67878;46.242;5.974;2023-07-20T12:21:34;5.35;;;2.30;;
78581;SDS011;67878;46.242;5.974;2023-07-20T12:24:02;2.63;;;1.80;;
78581;SDS011;67878;46.242;5.974;2023-07-20T12:26:28;2.42;;;1.75;;
78581;SDS011;67878;46.242;5.974;2023-07-20T12:28:54;3.03;;;2.20;;
78581;SDS011;67878;46.242;5.974;2023-07-20T12:31:20;2.85;;;2.13;;
78581;SDS011;67878;46.242;5.974;2023-07-20T12:33:48;4.15;;;2.22;;
78581;SDS011;67878;46.242;5.974;2023-07-20T12:36:14;4.30;;;2.00;;
78581;SDS011;67878;46.242;5.974;2023-07-20T12:38:39;2.60;;;1.70;;
78581;SDS011;67878;46.242;5.974;2023-07-20T12:41:06;3.08;;;2.10;;
78581;SDS011;67878;46.242;5.974;2023-07-20T12:43:32;3.67;;;2.00;;
78581;SDS011;67878;46.242;5.974;2023-07-20T12:45:58;2.38;;;1.67;;
78581;SDS011;67878;46.242;5.974;2023-07-20T12:48:23;2.80;;;1.90;;
78581;SDS011;67878;46.242;5.974;2023-07-20T12:50:48;2.83;;;1.85;;
78581;SDS011;67878;46.242;5.974;2023-07-20T12:53:15;2.67;;;1.58;;
78581;SDS011;67878;46.242;5.974;2023-07-20T12:55:41;3.50;;;2.00;;
78581;SDS011;67878;46.242;5.974;2023-07-20T12:58:06;2.80;;;1.60;;
78581;SDS011;67878;46.242;5.974;2023-07-20T13:00:32;2.58;;;1.70;;
78581;SDS011;67878;46.242;5.974;2023-07-20T13:02:59;3.25;;;1.73;;
78581;SDS011;67878;46.242;5.974;2023-07-20T13:05:30;3.40;;;1.90;;
78581;SDS011;67878;46.242;5.974;2023-07-20T13:07:56;2.63;;;1.85;;
78581;SDS011;67878;46.242;5.974;2023-07-20T13:10:23;3.03;;;1.88;;
78581;SDS011;67878;46.242;5.974;2023-07-20T13:12:48;3.10;;;1.60;;
78581;SDS011;67878;46.242;5.974;2023-07-20T13:15:14;2.67;;;1.60;;
78581;SDS011;67878;46.242;5.974;2023-07-20T13:17:39;3.50;;;1.70;;
78581;SDS011;67878;46.242;5.974;2023-07-20T13:20:09;4.35;;;2.00;;
78581;SDS011;67878;46.242;5.974;2023-07-20T13:22:39;2.10;;;1.50;;
78581;SDS011;67878;46.242;5.974;2023-07-20T13:25:09;2.25;;;1.67;;
78581;SDS011;67878;46.242;5.974;2023-07-20T13:27:35;2.53;;;1.50;;
78581;SDS011;67878;46.242;5.974;2023-07-20T13:30:03;3.55;;;2.00;;
78581;SDS011;67878;46.242;5.974;2023-07-20T13:32:33;3.67;;;2.00;;
78581;SDS011;67878;46.242;5.974;2023-07-20T13:34:59;3.55;;;1.65;;
78581;SDS011;67878;46.242;5.974;2023-07-20T13:37:24;1.98;;;1.50;;
78581;SDS011;67878;46.242;5.974;2023-07-20T13:39:50;3.17;;;1.95;;
78581;SDS011;67878;46.242;5.974;2023-07-20T13:42:16;2.80;;;1.52;;
78581;SDS011;67878;46.242;5.974;2023-07-20T13:44:42;3.80;;;1.60;;
78581;SDS011;67878;46.242;5.974;2023-07-20T13:47:07;2.83;;;1.63;;
78581;SDS011;67878;46.242;5.974;2023-07-20T13:49:34;2.08;;;1.50;;
78581;SDS011;67878;46.242;5.974;2023-07-20T13:52:03;2.40;;;1.40;;
78581;SDS011;67878;46.242;5.974;2023-07-20T13:54:30;2.47;;;1.52;;
78581;SDS011;67878;46.242;5.974;2023-07-20T13:56:56;2.65;;;1.70;;
78581;SDS011;67878;46.242;5.974;2023-07-20T13:59:21;2.42;;;1.70;;
78581;SDS011;67878;46.242;5.974;2023-07-20T14:01:48;2.53;;;1.65;;
78581;SDS011;67878;46.242;5.974;2023-07-20T14:04:14;2.80;;;1.52;;
78581;SDS011;67878;46.242;5.974;2023-07-20T14:06:39;2.85;;;1.40;;
78581;SDS011;67878;46.242;5.974;2023-07-20T14:09:05;2.47;;;1.38;;
78581;SDS011;67878;46.242;5.974;2023-07-20T14:11:31;2.13;;;1.40;;
78581;SDS011;67878;46.242;5.974;2023-07-20T14:13:56;2.60;;;1.50;;
78581;SDS011;67878;46.242;5.974;2023-07-20T14:16:23;1.48;;;1.23;;
78581;SDS011;67878;46.242;5.974;2023-07-20T14:18:49;1.95;;;1.40;;
78581;SDS011;67878;46.242;5.974;2023-07-20T14:21:15;3.33;;;1.45;;
78581;SDS011;67878;46.242;5.974;2023-07-20T14:23:48;2.05;;;1.40;;
78581;SDS011;67878;46.242;5.974;2023-07-20T14:28:43;2.65;;;1.23;;
78581;SDS011;67878;46.242;5.974;2023-07-20T14:31:09;3.45;;;1.48;;
78581;SDS011;67878;46.242;5.974;2023-07-20T14:33:34;2.78;;;1.50;;
78581;SDS011;67878;46.242;5.974;2023-07-20T14:36:00;2.40;;;1.20;;
78581;SDS011;67878;46.242;5.974;2023-07-20T14:38:27;1.55;;;1.33;;
78581;SDS011;67878;46.242;5.974;2023-07-20T14:40:53;1.63;;;1.35;;
78581;SDS011;67878;46.242;5.974;2023-07-20T14:43:19;2.97;;;1.30;;
78581;SDS011;67878;46.242;5.974;2023-07-20T14:45:44;2.15;;;1.20;;
78581;SDS011;67878;46.242;5.974;2023-07-20T14:48:10;2.30;;;1.40;;
78581;SDS011;67878;46.242;5.974;2023-07-20T14:50:36;2.80;;;1.45;;
78581;SDS011;67878;46.242;5.974;2023-07-20T14:53:01;2.00;;;1.30;;
78581;SDS011;67878;46.242;5.974;2023-07-20T14:55:26;1.88;;;1.38;;
78581;SDS011;67878;46.242;5.974;2023-07-20T14:57:52;1.67;;;1.40;;
78581;SDS011;67878;46.242;5.974;2023-07-20T15:00:17;1.80;;;1.30;;
78581;SDS011;67878;46.242;5.974;2023-07-20T15:02:43;3.92;;;1.52;;
78581;SDS011;67878;46.242;5.974;2023-07-20T15:05:09;3.35;;;1.50;;
78581;SDS011;67878;46.242;5.974;2023-07-20T15:07:35;3.88;;;1.45;;
78581;SDS011;67878;46.242;5.974;2023-07-20T15:10:01;2.00;;;1.40;;
78581;SDS011;67878;46.242;5.974;2023-07-20T15:12:27;2.30;;;1.25;;
78581;SDS011;67878;46.242;5.974;2023-07-20T15:17:37;2.47;;;1.30;;
78581;SDS011;67878;46.242;5.974;2023-07-20T15:20:04;3.42;;;1.50;;
78581;SDS011;67878;46.242;5.974;2023-07-20T15:22:31;2.05;;;1.40;;